sensor_id;sensor_type;location;lat;lon;timestamp;P1;durP1;ratioP1;P2;durP2;ratioP2
41305;SDS011;27051;50.376;19.152;2023-05-17T00:01:36;8.10;;;3.40;;
41305;SDS011;27051;50.376;19.152;2023-05-17T00:04:03;7.10;;;4.10;;
41305;SDS011;27051;50.376;19.152;2023-05-17T00:06:30;4.00;;;3.40;;
41305;SDS011;27051;50.376;19.152;2023-05-17T00:08:56;5.80;;;3.60;;
41305;SDS011;27051;50.376;19.152;2023-05-17T00:11:23;6.10;;;3.40;;
41305;SDS011;27051;50.376;19.152;2023-05-17T00:13:50;5.50;;;3.30;;
41305;SDS011;27051;50.376;19.152;2023-05-17T00:16:16;3.90;;;3.30;;
41305;SDS011;27051;50.376;19.152;2023-05-17T00:18:43;10.60;;;3.40;;
41305;SDS011;27051;50.376;19.152;2023-05-17T00:21:10;6.70;;;3.80;;
41305;SDS011;27051;50.376;19.152;2023-05-17T00:23:36;5.20;;;3.80;;
41305;SDS011;27051;50.376;19.152;2023-05-17T00:26:03;4.70;;;3.40;;
41305;SDS011;27051;50.376;19.152;2023-05-17T00:28:29;4.00;;;3.40;;
41305;SDS011;27051;50.376;19.152;2023-05-17T00:30:56;5.20;;;3.90;;
41305;SDS011;27051;50.376;19.152;2023-05-17T00:33:23;4.90;;;3.70;;
41305;SDS011;27051;50.376;19.152;2023-05-17T00:35:49;4.80;;;3.60;;
41305;SDS011;27051;50.376;19.152;2023-05-17T00:38:16;5.40;;;3.50;;
41305;SDS011;27051;50.376;19.152;2023-05-17T00:40:43;3.60;;;3.00;;
41305;SDS011;27051;50.376;19.152;2023-05-17T00:43:09;4.90;;;3.40;;
41305;SDS011;27051;50.376;19.152;2023-05-17T00:45:36;5.40;;;3.50;;
41305;SDS011;27051;50.376;19.152;2023-05-17T00:48:03;3.80;;;3.30;;
41305;SDS011;27051;50.376;19.152;2023-05-17T00:50:30;7.40;;;4.00;;
41305;SDS011;27051;50.376;19.152;2023-05-17T00:52:57;3.50;;;3.00;;
41305;SDS011;27051;50.376;19.152;2023-05-17T00:55:24;5.30;;;3.30;;
41305;SDS011;27051;50.376;19.152;2023-05-17T00:57:52;3.60;;;2.80;;
41305;SDS011;27051;50.376;19.152;2023-05-17T01:00:19;5.40;;;3.30;;
41305;SDS011;27051;50.376;19.152;2023-05-17T01:02:45;7.50;;;3.40;;
41305;SDS011;27051;50.376;19.152;2023-05-17T01:05:12;5.70;;;3.30;;
41305;SDS011;27051;50.376;19.152;2023-05-17T01:07:39;6.70;;;3.50;;
41305;SDS011;27051;50.376;19.152;2023-05-17T01:10:06;5.90;;;3.20;;
41305;SDS011;27051;50.376;19.152;2023-05-17T01:12:44;3.40;;;3.00;;
41305;SDS011;27051;50.376;19.152;2023-05-17T01:15:45;5.50;;;2.90;;
41305;SDS011;27051;50.376;19.152;2023-05-17T01:21:03;3.20;;;2.60;;
41305;SDS011;27051;50.376;19.152;2023-05-17T01:24:24;4.80;;;3.20;;
41305;SDS011;27051;50.376;19.152;2023-05-17T01:27:05;8.60;;;3.10;;
41305;SDS011;27051;50.376;19.152;2023-05-17T01:29:34;5.20;;;3.30;;
41305;SDS011;27051;50.376;19.152;2023-05-17T01:32:03;3.70;;;3.10;;
41305;SDS011;27051;50.376;19.152;2023-05-17T01:34:32;5.40;;;3.00;;
41305;SDS011;27051;50.376;19.152;2023-05-17T01:37:00;4.60;;;3.30;;
41305;SDS011;27051;50.376;19.152;2023-05-17T01:39:26;4.20;;;3.30;;
41305;SDS011;27051;50.376;19.152;2023-05-17T01:41:58;5.00;;;3.20;;
41305;SDS011;27051;50.376;19.152;2023-05-17T01:44:42;4.60;;;3.20;;
41305;SDS011;27051;50.376;19.152;2023-05-17T01:50:16;4.40;;;3.30;;
41305;SDS011;27051;50.376;19.152;2023-05-17T01:56:42;3.80;;;3.10;;
41305;SDS011;27051;50.376;19.152;2023-05-17T01:58:53;5.20;;;3.20;;
41305;SDS011;27051;50.376;19.152;2023-05-17T02:01:22;4.10;;;3.20;;
41305;SDS011;27051;50.376;19.152;2023-05-17T02:03:51;6.10;;;3.30;;
41305;SDS011;27051;50.376;19.152;2023-05-17T02:06:18;4.20;;;3.00;;
41305;SDS011;27051;50.376;19.152;2023-05-17T02:08:44;7.40;;;3.30;;
41305;SDS011;27051;50.376;19.152;2023-05-17T02:11:11;3.50;;;3.00;;
41305;SDS011;27051;50.376;19.152;2023-05-17T02:13:38;3.30;;;3.00;;
41305;SDS011;27051;50.376;19.152;2023-05-17T02:16:04;3.70;;;3.10;;
41305;SDS011;27051;50.376;19.152;2023-05-17T02:18:31;4.20;;;2.80;;
41305;SDS011;27051;50.376;19.152;2023-05-17T02:20:58;4.20;;;3.20;;
41305;SDS011;27051;50.376;19.152;2023-05-17T02:23:25;6.90;;;3.70;;
41305;SDS011;27051;50.376;19.152;2023-05-17T02:25:51;5.60;;;3.70;;
41305;SDS011;27051;50.376;19.152;2023-05-17T02:28:18;7.20;;;3.90;;
41305;SDS011;27051;50.376;19.152;2023-05-17T02:30:45;6.10;;;4.20;;
41305;SDS011;27051;50.376;19.152;2023-05-17T02:33:11;6.50;;;3.90;;
41305;SDS011;27051;50.376;19.152;2023-05-17T02:35:38;4.20;;;3.20;;
41305;SDS011;27051;50.376;19.152;2023-05-17T02:38:05;5.60;;;3.70;;
41305;SDS011;27051;50.376;19.152;2023-05-17T02:40:31;4.50;;;3.30;;
41305;SDS011;27051;50.376;19.152;2023-05-17T02:42:58;5.70;;;3.90;;
41305;SDS011;27051;50.376;19.152;2023-05-17T02:45:24;4.70;;;3.20;;
41305;SDS011;27051;50.376;19.152;2023-05-17T02:47:51;6.30;;;4.00;;
41305;SDS011;27051;50.376;19.152;2023-05-17T02:50:17;8.20;;;4.40;;
41305;SDS011;27051;50.376;19.152;2023-05-17T02:52:44;6.60;;;3.70;;
41305;SDS011;27051;50.376;19.152;2023-05-17T02:55:11;6.20;;;3.60;;
41305;SDS011;27051;50.376;19.152;2023-05-17T02:57:37;5.20;;;3.60;;
41305;SDS011;27051;50.376;19.152;2023-05-17T03:00:04;4.70;;;3.30;;
41305;SDS011;27051;50.376;19.152;2023-05-17T03:02:31;4.50;;;3.60;;
41305;SDS011;27051;50.376;19.152;2023-05-17T03:04:58;5.50;;;3.60;;
41305;SDS011;27051;50.376;19.152;2023-05-17T03:07:25;7.10;;;3.80;;
41305;SDS011;27051;50.376;19.152;2023-05-17T03:09:51;6.40;;;4.00;;
41305;SDS011;27051;50.376;19.152;2023-05-17T03:12:18;5.90;;;3.90;;
41305;SDS011;27051;50.376;19.152;2023-05-17T03:14:45;6.10;;;4.20;;
41305;SDS011;27051;50.376;19.152;2023-05-17T03:17:11;5.00;;;3.90;;
41305;SDS011;27051;50.376;19.152;2023-05-17T03:19:38;7.70;;;4.20;;
41305;SDS011;27051;50.376;19.152;2023-05-17T03:22:04;9.60;;;4.80;;
41305;SDS011;27051;50.376;19.152;2023-05-17T03:24:31;9.20;;;4.30;;
41305;SDS011;27051;50.376;19.152;2023-05-17T03:26:58;5.80;;;4.10;;
41305;SDS011;27051;50.376;19.152;2023-05-17T03:29:24;7.60;;;5.50;;
41305;SDS011;27051;50.376;19.152;2023-05-17T03:31:51;6.00;;;4.70;;
41305;SDS011;27051;50.376;19.152;2023-05-17T03:34:18;7.60;;;4.90;;
41305;SDS011;27051;50.376;19.152;2023-05-17T03:36:44;6.10;;;4.60;;
41305;SDS011;27051;50.376;19.152;2023-05-17T03:39:11;7.80;;;4.60;;
41305;SDS011;27051;50.376;19.152;2023-05-17T03:41:38;7.10;;;4.90;;
41305;SDS011;27051;50.376;19.152;2023-05-17T03:44:04;7.30;;;4.70;;
41305;SDS011;27051;50.376;19.152;2023-05-17T03:46:31;7.00;;;4.40;;
41305;SDS011;27051;50.376;19.152;2023-05-17T03:48:57;6.80;;;4.00;;
41305;SDS011;27051;50.376;19.152;2023-05-17T03:51:24;5.30;;;4.10;;
41305;SDS011;27051;50.376;19.152;2023-05-17T03:53:56;6.70;;;3.90;;
41305;SDS011;27051;50.376;19.152;2023-05-17T03:56:23;6.30;;;3.70;;
41305;SDS011;27051;50.376;19.152;2023-05-17T03:58:50;4.60;;;3.50;;
41305;SDS011;27051;50.376;19.152;2023-05-17T04:01:17;6.00;;;4.50;;
41305;SDS011;27051;50.376;19.152;2023-05-17T04:03:43;5.40;;;3.70;;
41305;SDS011;27051;50.376;19.152;2023-05-17T04:06:10;5.20;;;3.80;;
41305;SDS011;27051;50.376;19.152;2023-05-17T04:08:38;5.80;;;3.60;;
41305;SDS011;27051;50.376;19.152;2023-05-17T04:11:05;4.80;;;3.90;;
41305;SDS011;27051;50.376;19.152;2023-05-17T04:13:32;7.80;;;3.90;;
41305;SDS011;27051;50.376;19.152;2023-05-17T04:15:59;8.20;;;4.10;;
41305;SDS011;27051;50.376;19.152;2023-05-17T04:18:25;5.30;;;3.80;;
41305;SDS011;27051;50.376;19.152;2023-05-17T04:20:53;5.30;;;4.00;;
41305;SDS011;27051;50.376;19.152;2023-05-17T04:23:20;6.40;;;3.60;;
41305;SDS011;27051;50.376;19.152;2023-05-17T04:25:47;6.60;;;4.30;;
41305;SDS011;27051;50.376;19.152;2023-05-17T04:28:14;5.10;;;3.60;;
41305;SDS011;27051;50.376;19.152;2023-05-17T04:30:41;5.80;;;4.00;;
41305;SDS011;27051;50.376;19.152;2023-05-17T04:33:08;4.90;;;3.30;;
41305;SDS011;27051;50.376;19.152;2023-05-17T04:35:37;6.70;;;3.70;;
41305;SDS011;27051;50.376;19.152;2023-05-17T04:38:03;5.20;;;3.50;;
41305;SDS011;27051;50.376;19.152;2023-05-17T04:40:30;4.50;;;3.30;;
41305;SDS011;27051;50.376;19.152;2023-05-17T04:42:57;4.10;;;3.30;;
41305;SDS011;27051;50.376;19.152;2023-05-17T04:45:23;4.70;;;3.80;;
41305;SDS011;27051;50.376;19.152;2023-05-17T04:47:50;4.70;;;3.70;;
41305;SDS011;27051;50.376;19.152;2023-05-17T04:50:17;4.80;;;3.20;;
41305;SDS011;27051;50.376;19.152;2023-05-17T04:52:47;5.60;;;3.90;;
41305;SDS011;27051;50.376;19.152;2023-05-17T04:55:14;6.20;;;3.60;;
41305;SDS011;27051;50.376;19.152;2023-05-17T04:57:40;5.30;;;3.60;;
41305;SDS011;27051;50.376;19.152;2023-05-17T05:00:07;8.30;;;4.50;;
41305;SDS011;27051;50.376;19.152;2023-05-17T05:02:34;4.80;;;4.00;;
41305;SDS011;27051;50.376;19.152;2023-05-17T05:05:01;10.20;;;4.30;;
41305;SDS011;27051;50.376;19.152;2023-05-17T05:07:28;6.40;;;3.90;;
41305;SDS011;27051;50.376;19.152;2023-05-17T05:09:55;5.90;;;4.10;;
41305;SDS011;27051;50.376;19.152;2023-05-17T05:12:22;5.50;;;3.70;;
41305;SDS011;27051;50.376;19.152;2023-05-17T05:14:50;6.20;;;4.10;;
41305;SDS011;27051;50.376;19.152;2023-05-17T05:17:16;7.90;;;4.20;;
41305;SDS011;27051;50.376;19.152;2023-05-17T05:19:43;5.90;;;3.60;;
41305;SDS011;27051;50.376;19.152;2023-05-17T05:22:09;6.70;;;3.70;;
41305;SDS011;27051;50.376;19.152;2023-05-17T05:24:36;5.00;;;3.70;;
41305;SDS011;27051;50.376;19.152;2023-05-17T05:27:03;4.90;;;3.80;;
41305;SDS011;27051;50.376;19.152;2023-05-17T05:29:29;10.40;;;4.10;;
41305;SDS011;27051;50.376;19.152;2023-05-17T05:31:56;6.50;;;3.70;;
41305;SDS011;27051;50.376;19.152;2023-05-17T05:34:23;6.00;;;3.50;;
41305;SDS011;27051;50.376;19.152;2023-05-17T05:36:49;7.40;;;3.80;;
41305;SDS011;27051;50.376;19.152;2023-05-17T05:39:16;9.80;;;4.00;;
41305;SDS011;27051;50.376;19.152;2023-05-17T05:41:42;5.20;;;4.00;;
41305;SDS011;27051;50.376;19.152;2023-05-17T05:44:09;8.20;;;3.70;;
41305;SDS011;27051;50.376;19.152;2023-05-17T05:46:36;12.00;;;4.40;;
41305;SDS011;27051;50.376;19.152;2023-05-17T05:49:02;6.40;;;3.50;;
41305;SDS011;27051;50.376;19.152;2023-05-17T05:51:29;6.70;;;4.10;;
41305;SDS011;27051;50.376;19.152;2023-05-17T05:53:55;7.40;;;3.60;;
41305;SDS011;27051;50.376;19.152;2023-05-17T05:56:22;6.20;;;3.90;;
41305;SDS011;27051;50.376;19.152;2023-05-17T05:58:49;6.30;;;3.90;;
41305;SDS011;27051;50.376;19.152;2023-05-17T06:01:15;7.20;;;3.90;;
41305;SDS011;27051;50.376;19.152;2023-05-17T06:03:42;5.20;;;3.90;;
41305;SDS011;27051;50.376;19.152;2023-05-17T06:06:09;4.40;;;3.20;;
41305;SDS011;27051;50.376;19.152;2023-05-17T06:08:35;5.70;;;3.80;;
41305;SDS011;27051;50.376;19.152;2023-05-17T06:11:02;6.80;;;3.80;;
41305;SDS011;27051;50.376;19.152;2023-05-17T06:13:29;5.60;;;3.90;;
41305;SDS011;27051;50.376;19.152;2023-05-17T06:15:55;6.40;;;4.10;;
41305;SDS011;27051;50.376;19.152;2023-05-17T06:18:22;10.80;;;5.00;;
41305;SDS011;27051;50.376;19.152;2023-05-17T06:20:48;7.10;;;4.70;;
41305;SDS011;27051;50.376;19.152;2023-05-17T06:23:15;7.00;;;3.50;;
41305;SDS011;27051;50.376;19.152;2023-05-17T06:25:42;5.10;;;3.70;;
41305;SDS011;27051;50.376;19.152;2023-05-17T06:28:09;9.60;;;3.70;;
41305;SDS011;27051;50.376;19.152;2023-05-17T06:30:35;5.40;;;3.80;;
41305;SDS011;27051;50.376;19.152;2023-05-17T06:33:08;5.70;;;3.70;;
41305;SDS011;27051;50.376;19.152;2023-05-17T06:35:35;6.10;;;3.80;;
41305;SDS011;27051;50.376;19.152;2023-05-17T06:38:02;5.80;;;3.70;;
41305;SDS011;27051;50.376;19.152;2023-05-17T06:40:28;7.00;;;4.00;;
41305;SDS011;27051;50.376;19.152;2023-05-17T06:42:55;7.70;;;3.80;;
41305;SDS011;27051;50.376;19.152;2023-05-17T06:45:22;5.40;;;3.80;;
41305;SDS011;27051;50.376;19.152;2023-05-17T06:47:48;7.20;;;4.30;;
41305;SDS011;27051;50.376;19.152;2023-05-17T06:50:15;7.60;;;4.20;;
41305;SDS011;27051;50.376;19.152;2023-05-17T06:52:42;6.70;;;4.00;;
41305;SDS011;27051;50.376;19.152;2023-05-17T06:55:09;7.00;;;3.80;;
41305;SDS011;27051;50.376;19.152;2023-05-17T06:57:36;7.30;;;4.70;;
41305;SDS011;27051;50.376;19.152;2023-05-17T07:00:02;7.40;;;4.10;;
41305;SDS011;27051;50.376;19.152;2023-05-17T07:02:29;7.80;;;4.20;;
41305;SDS011;27051;50.376;19.152;2023-05-17T07:04:56;7.10;;;4.20;;
41305;SDS011;27051;50.376;19.152;2023-05-17T07:07:23;7.10;;;4.40;;
41305;SDS011;27051;50.376;19.152;2023-05-17T07:09:49;11.10;;;5.10;;
41305;SDS011;27051;50.376;19.152;2023-05-17T07:12:16;12.20;;;5.60;;
41305;SDS011;27051;50.376;19.152;2023-05-17T07:14:42;7.00;;;4.40;;
41305;SDS011;27051;50.376;19.152;2023-05-17T07:17:09;9.00;;;4.70;;
41305;SDS011;27051;50.376;19.152;2023-05-17T07:19:37;8.70;;;5.50;;
41305;SDS011;27051;50.376;19.152;2023-05-17T07:22:04;8.90;;;5.20;;
41305;SDS011;27051;50.376;19.152;2023-05-17T07:24:30;13.00;;;5.20;;
41305;SDS011;27051;50.376;19.152;2023-05-17T07:26:57;10.60;;;5.30;;
41305;SDS011;27051;50.376;19.152;2023-05-17T07:29:23;9.20;;;5.20;;
41305;SDS011;27051;50.376;19.152;2023-05-17T07:31:50;13.00;;;5.30;;
41305;SDS011;27051;50.376;19.152;2023-05-17T07:34:17;10.80;;;5.40;;
41305;SDS011;27051;50.376;19.152;2023-05-17T07:36:43;13.40;;;5.70;;
41305;SDS011;27051;50.376;19.152;2023-05-17T07:39:10;9.80;;;5.40;;
41305;SDS011;27051;50.376;19.152;2023-05-17T07:41:36;9.50;;;5.60;;
41305;SDS011;27051;50.376;19.152;2023-05-17T07:44:03;11.70;;;5.60;;
41305;SDS011;27051;50.376;19.152;2023-05-17T07:46:30;8.60;;;5.50;;
41305;SDS011;27051;50.376;19.152;2023-05-17T07:48:57;10.10;;;5.10;;
41305;SDS011;27051;50.376;19.152;2023-05-17T07:51:23;10.90;;;5.80;;
41305;SDS011;27051;50.376;19.152;2023-05-17T07:53:50;12.70;;;7.30;;
41305;SDS011;27051;50.376;19.152;2023-05-17T07:56:16;16.30;;;10.00;;
41305;SDS011;27051;50.376;19.152;2023-05-17T07:58:43;20.90;;;12.00;;
41305;SDS011;27051;50.376;19.152;2023-05-17T08:01:10;30.00;;;12.20;;
41305;SDS011;27051;50.376;19.152;2023-05-17T08:03:36;35.40;;;12.60;;
41305;SDS011;27051;50.376;19.152;2023-05-17T08:06:03;22.80;;;10.40;;
41305;SDS011;27051;50.376;19.152;2023-05-17T08:08:30;21.40;;;8.20;;
41305;SDS011;27051;50.376;19.152;2023-05-17T08:10:57;21.50;;;9.50;;
41305;SDS011;27051;50.376;19.152;2023-05-17T08:13:24;19.20;;;8.80;;
41305;SDS011;27051;50.376;19.152;2023-05-17T08:15:50;18.50;;;8.70;;
41305;SDS011;27051;50.376;19.152;2023-05-17T08:18:17;20.60;;;9.90;;
41305;SDS011;27051;50.376;19.152;2023-05-17T08:20:44;20.10;;;8.10;;
41305;SDS011;27051;50.376;19.152;2023-05-17T08:23:10;20.10;;;8.00;;
41305;SDS011;27051;50.376;19.152;2023-05-17T08:25:37;13.50;;;7.90;;
41305;SDS011;27051;50.376;19.152;2023-05-17T08:28:03;12.90;;;6.50;;
41305;SDS011;27051;50.376;19.152;2023-05-17T08:30:30;15.00;;;6.80;;
41305;SDS011;27051;50.376;19.152;2023-05-17T08:32:57;12.90;;;6.50;;
41305;SDS011;27051;50.376;19.152;2023-05-17T08:35:23;17.70;;;7.50;;
41305;SDS011;27051;50.376;19.152;2023-05-17T08:37:50;15.10;;;7.70;;
41305;SDS011;27051;50.376;19.152;2023-05-17T08:40:17;16.90;;;8.80;;
41305;SDS011;27051;50.376;19.152;2023-05-17T08:42:47;15.70;;;7.50;;
41305;SDS011;27051;50.376;19.152;2023-05-17T08:45:16;15.00;;;7.20;;
41305;SDS011;27051;50.376;19.152;2023-05-17T08:47:43;15.00;;;7.80;;
41305;SDS011;27051;50.376;19.152;2023-05-17T08:50:11;16.40;;;7.10;;
41305;SDS011;27051;50.376;19.152;2023-05-17T08:52:38;12.70;;;6.90;;
41305;SDS011;27051;50.376;19.152;2023-05-17T08:55:06;12.90;;;7.30;;
41305;SDS011;27051;50.376;19.152;2023-05-17T08:57:34;15.50;;;6.60;;
41305;SDS011;27051;50.376;19.152;2023-05-17T09:00:01;12.00;;;6.40;;
41305;SDS011;27051;50.376;19.152;2023-05-17T09:02:29;13.90;;;5.80;;
41305;SDS011;27051;50.376;19.152;2023-05-17T09:04:56;11.40;;;6.20;;
41305;SDS011;27051;50.376;19.152;2023-05-17T09:07:24;9.10;;;5.20;;
41305;SDS011;27051;50.376;19.152;2023-05-17T09:09:51;12.30;;;5.60;;
41305;SDS011;27051;50.376;19.152;2023-05-17T09:12:19;10.20;;;5.40;;
41305;SDS011;27051;50.376;19.152;2023-05-17T09:14:46;9.40;;;5.00;;
41305;SDS011;27051;50.376;19.152;2023-05-17T09:17:15;7.80;;;4.60;;
41305;SDS011;27051;50.376;19.152;2023-05-17T09:19:43;10.40;;;5.20;;
41305;SDS011;27051;50.376;19.152;2023-05-17T09:22:12;8.50;;;5.10;;
41305;SDS011;27051;50.376;19.152;2023-05-17T09:24:39;9.50;;;4.40;;
41305;SDS011;27051;50.376;19.152;2023-05-17T09:27:07;11.10;;;5.30;;
41305;SDS011;27051;50.376;19.152;2023-05-17T09:29:34;12.10;;;4.60;;
41305;SDS011;27051;50.376;19.152;2023-05-17T09:32:10;10.10;;;4.60;;
41305;SDS011;27051;50.376;19.152;2023-05-17T09:34:38;8.40;;;5.10;;
41305;SDS011;27051;50.376;19.152;2023-05-17T09:37:12;9.10;;;4.60;;
41305;SDS011;27051;50.376;19.152;2023-05-17T09:39:41;7.70;;;4.00;;
41305;SDS011;27051;50.376;19.152;2023-05-17T09:42:08;7.60;;;4.40;;
41305;SDS011;27051;50.376;19.152;2023-05-17T09:44:55;9.70;;;4.30;;
41305;SDS011;27051;50.376;19.152;2023-05-17T09:47:22;10.50;;;4.30;;
41305;SDS011;27051;50.376;19.152;2023-05-17T09:49:56;6.90;;;3.90;;
41305;SDS011;27051;50.376;19.152;2023-05-17T09:52:25;9.00;;;4.40;;
41305;SDS011;27051;50.376;19.152;2023-05-17T09:54:53;8.20;;;4.40;;
41305;SDS011;27051;50.376;19.152;2023-05-17T09:57:21;9.40;;;4.90;;
41305;SDS011;27051;50.376;19.152;2023-05-17T09:59:48;7.40;;;4.20;;
41305;SDS011;27051;50.376;19.152;2023-05-17T10:02:19;10.90;;;4.70;;
41305;SDS011;27051;50.376;19.152;2023-05-17T10:07:18;9.00;;;4.90;;
41305;SDS011;27051;50.376;19.152;2023-05-17T10:09:46;9.10;;;4.20;;
41305;SDS011;27051;50.376;19.152;2023-05-17T10:12:17;8.10;;;4.00;;
41305;SDS011;27051;50.376;19.152;2023-05-17T10:14:47;10.10;;;4.80;;
41305;SDS011;27051;50.376;19.152;2023-05-17T10:17:15;10.70;;;5.10;;
41305;SDS011;27051;50.376;19.152;2023-05-17T10:19:44;12.60;;;5.10;;
41305;SDS011;27051;50.376;19.152;2023-05-17T10:22:12;11.60;;;4.70;;
41305;SDS011;27051;50.376;19.152;2023-05-17T10:24:39;9.80;;;4.90;;
41305;SDS011;27051;50.376;19.152;2023-05-17T10:27:07;10.60;;;5.70;;
41305;SDS011;27051;50.376;19.152;2023-05-17T10:29:35;8.20;;;5.30;;
41305;SDS011;27051;50.376;19.152;2023-05-17T10:32:04;15.00;;;5.40;;
41305;SDS011;27051;50.376;19.152;2023-05-17T10:34:36;11.80;;;5.20;;
41305;SDS011;27051;50.376;19.152;2023-05-17T10:37:04;11.40;;;5.40;;
41305;SDS011;27051;50.376;19.152;2023-05-17T10:39:31;13.10;;;5.50;;
41305;SDS011;27051;50.376;19.152;2023-05-17T10:42:00;11.80;;;5.10;;
41305;SDS011;27051;50.376;19.152;2023-05-17T10:44:32;12.70;;;6.00;;
41305;SDS011;27051;50.376;19.152;2023-05-17T10:46:59;13.80;;;5.80;;
41305;SDS011;27051;50.376;19.152;2023-05-17T10:49:30;15.10;;;6.70;;
41305;SDS011;27051;50.376;19.152;2023-05-17T10:51:59;14.00;;;6.50;;
41305;SDS011;27051;50.376;19.152;2023-05-17T10:54:41;14.40;;;7.10;;
41305;SDS011;27051;50.376;19.152;2023-05-17T10:57:17;18.30;;;7.60;;
41305;SDS011;27051;50.376;19.152;2023-05-17T10:59:56;17.90;;;6.70;;
41305;SDS011;27051;50.376;19.152;2023-05-17T11:02:24;13.70;;;6.60;;
41305;SDS011;27051;50.376;19.152;2023-05-17T11:04:52;12.80;;;6.40;;
41305;SDS011;27051;50.376;19.152;2023-05-17T11:07:23;14.90;;;7.40;;
41305;SDS011;27051;50.376;19.152;2023-05-17T11:10:02;11.90;;;7.30;;
41305;SDS011;27051;50.376;19.152;2023-05-17T11:12:46;14.50;;;7.20;;
41305;SDS011;27051;50.376;19.152;2023-05-17T11:15:14;14.10;;;7.20;;
41305;SDS011;27051;50.376;19.152;2023-05-17T11:22:41;13.40;;;7.60;;
41305;SDS011;27051;50.376;19.152;2023-05-17T11:25:14;15.30;;;8.10;;
41305;SDS011;27051;50.376;19.152;2023-05-17T11:27:45;15.20;;;7.70;;
41305;SDS011;27051;50.376;19.152;2023-05-17T11:33:05;12.40;;;7.20;;
41305;SDS011;27051;50.376;19.152;2023-05-17T11:35:36;12.30;;;7.10;;
41305;SDS011;27051;50.376;19.152;2023-05-17T11:38:15;18.40;;;7.60;;
41305;SDS011;27051;50.376;19.152;2023-05-17T11:40:51;12.60;;;7.00;;
41305;SDS011;27051;50.376;19.152;2023-05-17T11:43:20;14.30;;;6.50;;
41305;SDS011;27051;50.376;19.152;2023-05-17T11:45:49;12.40;;;6.40;;
41305;SDS011;27051;50.376;19.152;2023-05-17T11:48:16;14.80;;;6.70;;
41305;SDS011;27051;50.376;19.152;2023-05-17T11:50:45;12.30;;;6.20;;
41305;SDS011;27051;50.376;19.152;2023-05-17T11:53:13;11.80;;;5.40;;
41305;SDS011;27051;50.376;19.152;2023-05-17T11:55:44;11.10;;;5.90;;
41305;SDS011;27051;50.376;19.152;2023-05-17T11:58:13;12.40;;;6.10;;
41305;SDS011;27051;50.376;19.152;2023-05-17T12:00:41;12.10;;;5.40;;
41305;SDS011;27051;50.376;19.152;2023-05-17T12:05:45;12.00;;;5.20;;
41305;SDS011;27051;50.376;19.152;2023-05-17T12:08:16;13.30;;;5.60;;
41305;SDS011;27051;50.376;19.152;2023-05-17T12:10:48;13.10;;;5.20;;
41305;SDS011;27051;50.376;19.152;2023-05-17T12:13:16;10.80;;;5.30;;
41305;SDS011;27051;50.376;19.152;2023-05-17T12:15:44;9.80;;;5.50;;
41305;SDS011;27051;50.376;19.152;2023-05-17T12:18:18;11.20;;;5.30;;
41305;SDS011;27051;50.376;19.152;2023-05-17T12:20:55;11.00;;;5.60;;
41305;SDS011;27051;50.376;19.152;2023-05-17T12:23:29;9.40;;;5.00;;
41305;SDS011;27051;50.376;19.152;2023-05-17T12:26:08;10.10;;;5.00;;
41305;SDS011;27051;50.376;19.152;2023-05-17T12:28:36;12.70;;;5.10;;
41305;SDS011;27051;50.376;19.152;2023-05-17T12:31:15;12.20;;;5.10;;
41305;SDS011;27051;50.376;19.152;2023-05-17T12:33:43;12.80;;;5.40;;
41305;SDS011;27051;50.376;19.152;2023-05-17T12:36:12;13.30;;;4.90;;
41305;SDS011;27051;50.376;19.152;2023-05-17T12:38:41;11.40;;;5.60;;
41305;SDS011;27051;50.376;19.152;2023-05-17T12:41:10;11.30;;;4.90;;
41305;SDS011;27051;50.376;19.152;2023-05-17T12:43:38;11.70;;;5.80;;
41305;SDS011;27051;50.376;19.152;2023-05-17T12:46:09;10.70;;;5.40;;
41305;SDS011;27051;50.376;19.152;2023-05-17T12:48:41;13.20;;;5.30;;
41305;SDS011;27051;50.376;19.152;2023-05-17T12:51:11;12.20;;;4.80;;
41305;SDS011;27051;50.376;19.152;2023-05-17T12:53:43;18.30;;;7.30;;
41305;SDS011;27051;50.376;19.152;2023-05-17T12:56:14;14.00;;;5.30;;
41305;SDS011;27051;50.376;19.152;2023-05-17T12:58:42;12.70;;;6.10;;
41305;SDS011;27051;50.376;19.152;2023-05-17T13:01:10;11.10;;;5.50;;
41305;SDS011;27051;50.376;19.152;2023-05-17T13:03:37;12.90;;;4.90;;
41305;SDS011;27051;50.376;19.152;2023-05-17T13:06:06;14.80;;;5.70;;
41305;SDS011;27051;50.376;19.152;2023-05-17T13:08:34;17.70;;;7.40;;
41305;SDS011;27051;50.376;19.152;2023-05-17T13:11:35;20.40;;;9.20;;
41305;SDS011;27051;50.376;19.152;2023-05-17T13:13:54;11.30;;;4.70;;
41305;SDS011;27051;50.376;19.152;2023-05-17T13:16:28;11.50;;;5.00;;
41305;SDS011;27051;50.376;19.152;2023-05-17T13:18:56;12.00;;;5.40;;
41305;SDS011;27051;50.376;19.152;2023-05-17T13:21:22;12.40;;;5.40;;
41305;SDS011;27051;50.376;19.152;2023-05-17T13:23:49;15.60;;;5.20;;
41305;SDS011;27051;50.376;19.152;2023-05-17T13:26:16;15.50;;;5.30;;
41305;SDS011;27051;50.376;19.152;2023-05-17T13:28:44;13.50;;;5.60;;
41305;SDS011;27051;50.376;19.152;2023-05-17T13:31:11;15.00;;;5.30;;
41305;SDS011;27051;50.376;19.152;2023-05-17T13:33:37;11.10;;;5.30;;
41305;SDS011;27051;50.376;19.152;2023-05-17T13:36:04;11.70;;;4.90;;
41305;SDS011;27051;50.376;19.152;2023-05-17T13:38:30;10.10;;;4.30;;
41305;SDS011;27051;50.376;19.152;2023-05-17T13:40:57;13.10;;;5.00;;
41305;SDS011;27051;50.376;19.152;2023-05-17T13:43:24;10.00;;;5.10;;
41305;SDS011;27051;50.376;19.152;2023-05-17T13:45:50;10.30;;;4.90;;
41305;SDS011;27051;50.376;19.152;2023-05-17T13:48:17;13.10;;;5.40;;
41305;SDS011;27051;50.376;19.152;2023-05-17T13:50:43;12.20;;;5.90;;
41305;SDS011;27051;50.376;19.152;2023-05-17T13:53:10;12.90;;;5.70;;
41305;SDS011;27051;50.376;19.152;2023-05-17T13:55:37;16.10;;;5.40;;
41305;SDS011;27051;50.376;19.152;2023-05-17T13:58:03;16.40;;;5.80;;
41305;SDS011;27051;50.376;19.152;2023-05-17T14:00:30;13.90;;;5.60;;
41305;SDS011;27051;50.376;19.152;2023-05-17T14:02:57;12.00;;;5.50;;
41305;SDS011;27051;50.376;19.152;2023-05-17T14:05:23;15.90;;;6.50;;
41305;SDS011;27051;50.376;19.152;2023-05-17T14:07:50;16.40;;;6.60;;
41305;SDS011;27051;50.376;19.152;2023-05-17T14:10:16;14.60;;;6.20;;
41305;SDS011;27051;50.376;19.152;2023-05-17T14:12:43;13.00;;;5.60;;
41305;SDS011;27051;50.376;19.152;2023-05-17T14:15:10;25.40;;;12.00;;
41305;SDS011;27051;50.376;19.152;2023-05-17T14:17:36;19.30;;;7.40;;
41305;SDS011;27051;50.376;19.152;2023-05-17T14:20:03;14.50;;;6.40;;
41305;SDS011;27051;50.376;19.152;2023-05-17T14:22:30;14.50;;;6.90;;
41305;SDS011;27051;50.376;19.152;2023-05-17T14:24:57;14.60;;;5.90;;
41305;SDS011;27051;50.376;19.152;2023-05-17T14:27:24;16.70;;;6.90;;
41305;SDS011;27051;50.376;19.152;2023-05-17T14:29:50;13.30;;;6.20;;
41305;SDS011;27051;50.376;19.152;2023-05-17T14:32:17;26.20;;;11.70;;
41305;SDS011;27051;50.376;19.152;2023-05-17T14:34:43;25.20;;;11.80;;
41305;SDS011;27051;50.376;19.152;2023-05-17T14:37:10;18.90;;;9.00;;
41305;SDS011;27051;50.376;19.152;2023-05-17T14:39:37;15.20;;;7.00;;
41305;SDS011;27051;50.376;19.152;2023-05-17T14:42:03;19.30;;;7.90;;
41305;SDS011;27051;50.376;19.152;2023-05-17T14:44:30;17.00;;;7.40;;
41305;SDS011;27051;50.376;19.152;2023-05-17T14:46:57;19.00;;;7.50;;
41305;SDS011;27051;50.376;19.152;2023-05-17T14:49:23;19.00;;;7.60;;
41305;SDS011;27051;50.376;19.152;2023-05-17T14:51:50;17.40;;;7.60;;
41305;SDS011;27051;50.376;19.152;2023-05-17T14:54:26;16.40;;;7.00;;
41305;SDS011;27051;50.376;19.152;2023-05-17T14:56:52;16.40;;;7.00;;